Estación de San Nicolás

Ultimos registro cada 15 minutos 69
Estación Fecha / Hora Temperatura Humedad Lluvia Velocidad Dirección Radiación Presion
69 San Nicolás 05-05-2026 17:00 18,2 81 0 0 61 18 1010,5
68 San Nicolás 05-05-2026 16:45 18,4 80 0 0 61 28 1010,3
67 San Nicolás 05-05-2026 16:30 18,6 77 0 0 61 32 1010,5
66 San Nicolás 05-05-2026 16:15 18,7 77 0 0 61 51 1010,3
65 San Nicolás 05-05-2026 16:00 18,9 76 0 1,8 84 67 1009,6
64 San Nicolás 05-05-2026 15:45 19,1 75 0 0,9 295 81 1010,2
63 San Nicolás 05-05-2026 15:30 19,3 76 0 0,9 292 91 1009,8
62 San Nicolás 05-05-2026 15:15 19,4 76 0 0 292 160 1009,9
61 San Nicolás 05-05-2026 15:00 19,3 74 0 0,4 292 192 1009,6
60 San Nicolás 05-05-2026 14:45 19,2 77 0 0 288 214 1009,8
59 San Nicolás 05-05-2026 14:30 18,9 76 0 0 18 202 1009,2
58 San Nicolás 05-05-2026 14:15 18,9 78 0 1,8 18 176 1009,6
57 San Nicolás 05-05-2026 14:00 18,6 81 0 0 292 202 1009,6
56 San Nicolás 05-05-2026 13:45 18,3 82 0 0 59 174 1009,8
55 San Nicolás 05-05-2026 13:30 18,3 83 0 0 59 113 1009,1
54 San Nicolás 05-05-2026 13:15 18,2 83 0 1,8 40 153 1009
53 San Nicolás 05-05-2026 13:00 18,2 84 0 1,3 40 209 1009,9
52 San Nicolás 05-05-2026 12:45 18,1 85 0 1,8 67 294 1009,6
51 San Nicolás 05-05-2026 12:30 17,6 87 0 2,7 75 264 1009,6
50 San Nicolás 05-05-2026 12:15 17 88 0 0,9 39 246 1010
49 San Nicolás 05-05-2026 12:00 16,7 89 0 1,8 34 243 1010,5
48 San Nicolás 05-05-2026 11:45 16,3 90 0 1,3 42 174 1010,6
47 San Nicolás 05-05-2026 11:30 15,9 92 0 0,4 42 223 1010,6
46 San Nicolás 05-05-2026 11:15 15,7 93 0 1,3 42 190 1010,5
45 San Nicolás 05-05-2026 11:00 15,3 95 0 0,9 42 207 1011,1
44 San Nicolás 05-05-2026 10:45 14,9 96 0 0 43 185 1010,6
43 San Nicolás 05-05-2026 10:30 14,7 97 0 0,9 49 193 1010,8
42 San Nicolás 05-05-2026 10:15 14,4 97 0 0,9 53 127 1011,2
41 San Nicolás 05-05-2026 10:00 14,4 97 0 0 69 116 1011,5
40 San Nicolás 05-05-2026 09:45 14,2 97 0 0,9 69 118 1011,4
39 San Nicolás 05-05-2026 09:30 14 97 0 0,4 69 114 1011,1
38 San Nicolás 05-05-2026 09:15 13,7 97 0 0,9 69 111 1011,1
37 San Nicolás 05-05-2026 09:00 13,3 97 0 0,9 68 105 1011,8
36 San Nicolás 05-05-2026 08:45 12,6 97 0 0 79 111 1011,2
35 San Nicolás 05-05-2026 08:30 12,1 97 0 0 79 44 1011,7
34 San Nicolás 05-05-2026 08:15 11,7 97 0 0 79 33 1011,8
33 San Nicolás 05-05-2026 08:00 11,5 97 0 0 79 21 1011,9
32 San Nicolás 05-05-2026 07:45 11,3 96 0 0 79 5 1011,8
31 San Nicolás 05-05-2026 07:30 11,3 96 0 0 79 0 1012
30 San Nicolás 05-05-2026 07:15 11,5 96 0 0 79 0 1012,1
29 San Nicolás 05-05-2026 07:00 11,6 96 0 0 79 0 1012,6
28 San Nicolás 05-05-2026 06:45 11,9 96 0 0 79 0 1012,6
27 San Nicolás 05-05-2026 06:30 12,2 96 0 0 79 0 1012,8
26 San Nicolás 05-05-2026 06:15 12,3 97 0 0 79 0 1012,8
25 San Nicolás 05-05-2026 06:00 12,3 96 0 0 79 0 1012,5
24 San Nicolás 05-05-2026 05:45 12,3 97 0 0,9 79 0 1012,6
23 San Nicolás 05-05-2026 05:30 12,2 96 0 0,9 79 0 1012,8
22 San Nicolás 05-05-2026 05:15 12,2 97 0 0 78 0 1013,1
21 San Nicolás 05-05-2026 05:00 11,9 96 0 1,8 78 0 1012,3
20 San Nicolás 05-05-2026 04:45 12 96 0 0 76 0 1012,9
19 San Nicolás 05-05-2026 04:30 11,8 96 0 0 76 0 1012,8
18 San Nicolás 05-05-2026 04:15 11,7 96 0 0 76 0 1013,1
17 San Nicolás 05-05-2026 04:00 11,8 96 0 0 76 0 1012,4
16 San Nicolás 05-05-2026 03:45 11,8 96 0 0 76 0 1012,1
15 San Nicolás 05-05-2026 03:30 11,9 96 0 0 76 0 1012,3
14 San Nicolás 05-05-2026 03:15 12,1 96 0 0 76 0 1012,9
13 San Nicolás 05-05-2026 03:00 12,1 96 0 0 76 0 1012,8
12 San Nicolás 05-05-2026 02:45 12,2 96 0 0 76 0 1012,9
11 San Nicolás 05-05-2026 02:30 12,1 96 0 0 76 0 1012,7
10 San Nicolás 05-05-2026 02:15 12,1 96 0 0 76 0 1013,1
9 San Nicolás 05-05-2026 02:00 12,3 96 0 0 76 0 1012,9
8 San Nicolás 05-05-2026 01:45 12,4 96 0 0 76 0 1013,2
7 San Nicolás 05-05-2026 01:30 12,2 96 0 0 76 0 1013,2
6 San Nicolás 05-05-2026 01:15 12,2 96 0 0 76 0 1013,1
5 San Nicolás 05-05-2026 01:00 12,1 96 0 0 76 0 1012,9
4 San Nicolás 05-05-2026 00:45 12,1 96 0 0 76 0 1013,1
3 San Nicolás 05-05-2026 00:30 11,9 95 0 0 76 0 1013,5
2 San Nicolás 05-05-2026 00:15 11,9 95 0 0 76 0 1013,5
1 San Nicolás 05-05-2026 00:00 12,1 95 0 0 76 0 1013,6